createdAt,value
2022-10-12T00:02:06.368Z,20.40
2022-10-12T00:04:38.649Z,21.50
2022-10-12T00:07:10.925Z,21.90
2022-10-12T00:09:43.270Z,20.00
2022-10-12T00:12:15.486Z,17.90
2022-10-12T00:14:47.793Z,21.10
2022-10-12T00:17:20.084Z,26.20
2022-10-12T00:19:52.793Z,24.80
2022-10-12T00:22:25.038Z,22.40
2022-10-12T00:24:57.400Z,22.90
2022-10-12T00:27:29.691Z,29.20
2022-10-12T00:30:02.055Z,20.40
2022-10-12T00:32:34.737Z,25.30
2022-10-12T00:35:07.932Z,24.50
2022-10-12T00:37:40.385Z,20.80
2022-10-12T00:40:14.763Z,19.10
2022-10-12T00:42:49.253Z,20.10
2022-10-12T00:45:24.837Z,15.70
2022-10-12T00:48:00.491Z,16.80
2022-10-12T00:50:35.520Z,19.80
2022-10-12T00:53:11.040Z,21.60
2022-10-12T00:55:50.820Z,17.20
2022-10-12T00:58:23.620Z,25.50
2022-10-12T01:00:56.049Z,24.30
2022-10-12T01:03:28.468Z,44.10
2022-10-12T01:06:01.632Z,84.00
2022-10-12T01:08:34.401Z,168.00
2022-10-12T01:11:06.872Z,85.90
2022-10-12T01:13:39.268Z,118.00
2022-10-12T01:16:20.943Z,167.60
2022-10-12T01:19:04.038Z,124.70
2022-10-12T01:21:42.165Z,71.90
2022-10-12T01:24:40.842Z,204.50
2022-10-12T01:27:28.946Z,232.20
2022-10-12T01:30:22.039Z,105.20
2022-10-12T01:33:09.984Z,31.50
2022-10-12T01:35:50.487Z,34.30
2022-10-12T01:38:35.967Z,344.10
2022-10-12T01:43:43.967Z,428.10
2022-10-12T01:46:42.541Z,528.20
2022-10-12T01:49:17.189Z,171.10
2022-10-12T01:52:08.880Z,151.10
2022-10-12T01:54:54.918Z,413.70
2022-10-12T01:57:36.223Z,61.20
2022-10-12T02:00:11.751Z,47.60
2022-10-12T02:02:55.337Z,31.00
2022-10-12T02:05:35.597Z,102.00
2022-10-12T02:08:14.404Z,126.30
2022-10-12T02:10:54.864Z,44.30
2022-10-12T02:13:31.501Z,26.10
2022-10-12T02:16:08.460Z,25.20
2022-10-12T02:18:44.260Z,30.40
2022-10-12T02:21:21.912Z,49.80
2022-10-12T02:23:57.791Z,120.30
2022-10-12T02:26:31.504Z,55.40
2022-10-12T02:29:07.725Z,46.00
2022-10-12T02:31:47.167Z,36.20
2022-10-12T02:34:23.799Z,24.80
2022-10-12T02:37:06.432Z,29.90
2022-10-12T02:39:46.550Z,25.60
2022-10-12T02:42:23.134Z,23.50
2022-10-12T02:44:56.986Z,23.40
2022-10-12T02:47:33.959Z,25.80
2022-10-12T02:50:09.373Z,27.20
2022-10-12T02:52:42.080Z,21.90
2022-10-12T02:55:15.075Z,22.20
2022-10-12T02:57:47.548Z,19.30
2022-10-12T03:00:21.211Z,21.20
2022-10-12T03:02:53.544Z,30.20
2022-10-12T03:05:25.858Z,19.40
2022-10-12T03:07:58.177Z,26.80
2022-10-12T03:10:30.507Z,29.00
2022-10-12T03:13:02.816Z,28.70
2022-10-12T03:15:35.092Z,24.30
2022-10-12T03:18:07.550Z,25.30
2022-10-12T03:20:39.872Z,27.90
2022-10-12T03:23:12.261Z,54.90
2022-10-12T03:25:44.625Z,52.80
2022-10-12T03:28:16.990Z,43.50
2022-10-12T03:30:49.429Z,37.70
2022-10-12T03:33:21.687Z,30.20
2022-10-12T03:35:54.124Z,26.40
2022-10-12T03:38:26.397Z,21.40
2022-10-12T03:41:01.784Z,25.00
2022-10-12T03:43:38.533Z,26.60
2022-10-12T03:46:10.777Z,24.20
2022-10-12T03:48:43.424Z,26.60
2022-10-12T03:51:15.785Z,25.50
2022-10-12T03:53:48.084Z,26.50
2022-10-12T03:56:20.324Z,24.70
2022-10-12T03:58:52.601Z,21.60
2022-10-12T04:01:25.859Z,26.00
2022-10-12T04:03:58.370Z,26.00
2022-10-12T04:06:30.556Z,23.10
2022-10-12T04:09:02.825Z,21.80
2022-10-12T04:11:35.185Z,21.70
2022-10-12T04:14:07.377Z,20.50
2022-10-12T04:16:39.639Z,18.30
2022-10-12T04:19:14.204Z,19.60
2022-10-12T04:21:46.493Z,18.60
2022-10-12T04:24:18.781Z,20.10
2022-10-12T04:26:51.060Z,21.30
2022-10-12T04:29:23.422Z,22.70
2022-10-12T04:31:55.581Z,18.40
2022-10-12T04:34:27.905Z,17.30
2022-10-12T04:37:00.109Z,24.70
2022-10-12T04:39:32.648Z,27.70
2022-10-12T04:42:06.995Z,26.90
2022-10-12T04:44:39.220Z,26.60
2022-10-12T04:47:11.445Z,20.10
2022-10-12T04:49:43.923Z,21.00
2022-10-12T04:52:16.157Z,21.00
2022-10-12T04:54:48.571Z,20.00
2022-10-12T04:57:20.993Z,19.90
2022-10-12T04:59:53.293Z,63.80
2022-10-12T05:02:25.496Z,196.60
2022-10-12T05:04:58.240Z,117.70
2022-10-12T05:07:30.415Z,66.30
2022-10-12T05:10:02.713Z,39.90
2022-10-12T05:12:35.067Z,46.60
2022-10-12T05:15:09.080Z,40.70
2022-10-12T05:17:41.448Z,40.40
2022-10-12T05:20:15.150Z,36.10
2022-10-12T05:22:47.384Z,46.80
2022-10-12T05:25:20.684Z,46.80
2022-10-12T05:27:52.878Z,46.80
2022-10-12T05:30:25.472Z,49.60
2022-10-12T05:32:57.764Z,53.80
2022-10-12T05:35:30.084Z,51.90
2022-10-12T05:38:02.504Z,43.80
2022-10-12T05:40:34.827Z,68.60
2022-10-12T05:43:07.165Z,72.50
2022-10-12T05:45:39.656Z,58.10
2022-10-12T05:48:11.916Z,37.10
2022-10-12T05:50:44.128Z,24.90
2022-10-12T05:53:16.372Z,26.70
2022-10-12T05:55:56.880Z,27.90
2022-10-12T05:58:30.813Z,35.50
2022-10-12T06:01:10.464Z,24.30
2022-10-12T06:03:42.972Z,22.70
2022-10-12T06:06:15.192Z,27.60
2022-10-12T06:08:47.489Z,24.90
2022-10-12T06:11:19.873Z,21.80
2022-10-12T06:13:52.109Z,22.90
2022-10-12T06:16:24.381Z,22.60
2022-10-12T06:18:56.643Z,20.40
2022-10-12T06:21:33.481Z,23.30
2022-10-12T06:24:07.506Z,36.00
2022-10-12T06:26:39.801Z,40.50
2022-10-12T06:29:12.491Z,33.70
2022-10-12T06:31:48.930Z,20.70
2022-10-12T06:34:22.899Z,20.80
2022-10-12T06:36:59.473Z,19.70
2022-10-12T06:39:33.872Z,18.80
2022-10-12T06:42:07.781Z,20.20
2022-10-12T06:44:41.006Z,17.90
2022-10-12T06:47:13.353Z,20.10
2022-10-12T06:49:45.570Z,16.30
2022-10-12T06:52:17.833Z,33.20
2022-10-12T06:54:50.044Z,20.40
2022-10-12T06:57:22.320Z,20.00
2022-10-12T06:59:54.535Z,19.10
2022-10-12T07:02:26.822Z,21.00
2022-10-12T07:04:59.058Z,16.70
2022-10-12T07:07:32.873Z,20.20
2022-10-12T07:10:07.599Z,17.90
2022-10-12T07:12:40.534Z,16.70
2022-10-12T07:15:14.145Z,15.20
2022-10-12T07:17:46.410Z,15.60
2022-10-12T07:20:18.784Z,16.20
2022-10-12T07:22:51.071Z,20.20
2022-10-12T07:25:23.365Z,16.20
2022-10-12T07:27:55.683Z,16.80
2022-10-12T07:30:27.975Z,16.70
2022-10-12T07:33:00.197Z,16.60
2022-10-12T07:35:32.509Z,16.60
2022-10-12T07:38:05.380Z,15.30
2022-10-12T07:40:38.227Z,15.10
2022-10-12T07:43:16.109Z,16.40
2022-10-12T07:45:48.977Z,11.70
2022-10-12T07:48:21.260Z,15.40
2022-10-12T07:50:53.541Z,14.70
2022-10-12T07:53:25.813Z,13.90
2022-10-12T07:56:04.278Z,17.20
2022-10-12T07:58:36.660Z,8.60
2022-10-12T08:01:11.345Z,14.50
2022-10-12T08:03:43.734Z,13.20
2022-10-12T08:06:18.314Z,13.40
2022-10-12T08:08:50.907Z,11.00
2022-10-12T08:11:23.399Z,14.70
2022-10-12T08:13:56.381Z,13.40
2022-10-12T08:16:28.573Z,10.80
2022-10-12T08:19:02.727Z,12.70
2022-10-12T08:21:34.989Z,11.60
2022-10-12T08:24:09.513Z,9.90
2022-10-12T08:26:42.041Z,13.40
2022-10-12T08:29:14.227Z,12.30
2022-10-12T08:31:46.514Z,14.10
2022-10-12T08:34:18.868Z,11.70
2022-10-12T08:36:51.981Z,12.30
2022-10-12T08:39:24.367Z,11.50
2022-10-12T08:42:08.134Z,13.90
2022-10-12T08:45:07.915Z,11.10
2022-10-12T08:47:44.033Z,15.20
2022-10-12T08:50:31.101Z,9.40
2022-10-12T08:53:12.905Z,9.60
2022-10-12T08:55:47.315Z,9.60
2022-10-12T08:58:21.934Z,12.90
2022-10-12T09:00:58.624Z,10.00
2022-10-12T09:03:44.288Z,9.10
2022-10-12T09:06:19.965Z,9.80
2022-10-12T09:09:06.377Z,11.80
2022-10-12T09:11:53.186Z,10.00
2022-10-12T09:14:28.703Z,10.80
2022-10-12T09:17:04.001Z,10.30
2022-10-12T09:19:42.009Z,8.10
2022-10-12T09:22:19.683Z,9.40
2022-10-12T09:24:53.087Z,7.80
2022-10-12T09:27:25.448Z,7.20
2022-10-12T09:30:03.342Z,9.70
2022-10-12T09:33:00.776Z,8.90
2022-10-12T09:35:33.670Z,9.60
2022-10-12T09:38:07.392Z,6.70
2022-10-12T09:40:40.396Z,9.50
2022-10-12T09:43:12.931Z,11.60
2022-10-12T09:45:45.259Z,10.00
2022-10-12T09:48:20.858Z,9.00
2022-10-12T09:50:55.801Z,13.00
2022-10-12T09:53:36.154Z,6.20
2022-10-12T09:56:16.081Z,7.70
2022-10-12T09:58:55.341Z,5.50
2022-10-12T10:01:29.911Z,10.40
2022-10-12T10:04:15.285Z,6.40
2022-10-12T10:06:48.494Z,6.30
2022-10-12T10:09:32.316Z,7.30
2022-10-12T10:12:22.976Z,5.60
2022-10-12T10:14:57.919Z,6.90
2022-10-12T10:17:33.787Z,6.70
2022-10-12T10:20:23.795Z,6.30
2022-10-12T10:22:56.368Z,62.70
2022-10-12T10:25:29.515Z,80.10
2022-10-12T10:28:30.023Z,16.70
2022-10-12T10:31:04.961Z,9.70
2022-10-12T10:36:14.955Z,8.10
2022-10-12T10:38:59.218Z,6.30
2022-10-12T10:41:39.624Z,8.10
2022-10-12T10:44:25.651Z,6.50
2022-10-12T10:47:02.401Z,9.90
2022-10-12T10:49:42.386Z,5.80
2022-10-12T10:52:25.076Z,6.70
2022-10-12T10:55:20.340Z,6.20
2022-10-12T10:58:02.306Z,8.60
2022-10-12T11:00:39.698Z,5.10
2022-10-12T11:06:08.429Z,4.70
2022-10-12T11:08:42.858Z,5.40
2022-10-12T11:11:19.951Z,4.60
2022-10-12T11:13:59.348Z,5.60
2022-10-12T11:16:35.537Z,4.70
2022-10-12T11:19:21.200Z,3.80
2022-10-12T11:21:57.186Z,6.50
2022-10-12T11:24:34.746Z,5.50
2022-10-12T11:27:13.724Z,5.90
2022-10-12T11:29:54.119Z,8.30
2022-10-12T11:32:40.012Z,6.70
2022-10-12T11:35:18.729Z,8.20
2022-10-12T11:37:55.207Z,4.50
2022-10-12T11:40:55.620Z,11.70
2022-10-12T11:46:03.021Z,5.90
2022-10-12T11:48:40.895Z,8.10
2022-10-12T11:51:14.177Z,5.80
2022-10-12T11:53:56.231Z,6.60
2022-10-12T11:56:32.719Z,5.60
2022-10-12T11:59:11.853Z,5.80
2022-10-12T12:01:53.993Z,7.30
2022-10-12T12:04:48.275Z,12.10
2022-10-12T12:07:46.476Z,6.90
2022-10-12T12:11:03.747Z,6.20
2022-10-12T12:13:35.991Z,7.00
2022-10-12T12:16:31.874Z,6.20
2022-10-12T12:19:40.175Z,5.90
2022-10-12T12:22:28.839Z,4.10
2022-10-12T12:25:20.246Z,6.50
2022-10-12T12:27:56.058Z,4.90
2022-10-12T12:30:34.396Z,4.40
2022-10-12T12:33:26.462Z,4.60
2022-10-12T12:36:01.797Z,8.00
2022-10-12T12:38:36.888Z,8.60
2022-10-12T12:41:12.872Z,12.60
2022-10-12T12:44:06.168Z,131.70
2022-10-12T12:50:37.579Z,320.50
2022-10-12T12:53:18.355Z,282.60
2022-10-12T12:56:17.483Z,27.30
2022-10-12T12:59:03.552Z,11.20
2022-10-12T13:01:57.293Z,8.10
2022-10-12T13:05:01.547Z,5.50
2022-10-12T13:07:52.055Z,8.20
2022-10-12T13:10:39.645Z,11.80
2022-10-12T13:14:27.169Z,14.00
2022-10-12T13:20:16.997Z,5.00
2022-10-12T13:22:51.556Z,3.50
2022-10-12T13:25:33.849Z,4.80
2022-10-12T13:28:13.811Z,3.50
2022-10-12T13:30:52.553Z,4.60
2022-10-12T13:33:32.610Z,4.10
2022-10-12T13:36:09.787Z,6.90
2022-10-12T13:38:42.201Z,10.10
2022-10-12T13:41:17.390Z,10.70
2022-10-12T13:43:55.584Z,16.70
2022-10-12T13:46:45.623Z,11.90
2022-10-12T13:49:21.490Z,14.00
2022-10-12T13:51:55.884Z,11.90
2022-10-12T13:54:36.017Z,7.40
2022-10-12T13:57:20.149Z,5.20
2022-10-12T13:59:57.811Z,7.10
2022-10-12T14:02:33.916Z,7.40
2022-10-12T14:05:16.933Z,18.60
2022-10-12T14:07:50.841Z,10.50
2022-10-12T14:10:25.755Z,39.70
2022-10-12T14:15:36.081Z,48.10
2022-10-12T14:18:38.500Z,29.90
2022-10-12T14:21:17.517Z,15.30
2022-10-12T14:23:51.979Z,11.40
2022-10-12T14:26:30.562Z,11.00
2022-10-12T14:29:23.063Z,10.20
2022-10-12T14:31:57.090Z,9.50
2022-10-12T14:34:37.753Z,10.50
2022-10-12T14:37:26.514Z,10.40
2022-10-12T14:40:03.327Z,10.30
2022-10-12T14:42:37.059Z,14.40
2022-10-12T14:45:25.777Z,32.70
2022-10-12T14:47:59.752Z,33.30
2022-10-12T14:50:34.054Z,40.20
2022-10-12T14:53:11.608Z,33.30
2022-10-12T14:55:44.464Z,35.00
2022-10-12T14:58:19.668Z,33.60
2022-10-12T15:00:51.958Z,44.90
2022-10-12T15:03:24.160Z,50.60
2022-10-12T15:05:56.359Z,96.40
2022-10-12T15:08:28.625Z,54.80
2022-10-12T15:11:00.779Z,48.90
2022-10-12T15:13:32.928Z,45.50
2022-10-12T15:16:11.359Z,63.40
2022-10-12T15:18:43.449Z,61.10
2022-10-12T15:21:16.277Z,65.20
2022-10-12T15:23:48.737Z,87.20
2022-10-12T15:26:21.029Z,113.60
2022-10-12T15:28:53.171Z,90.80
2022-10-12T15:31:25.365Z,94.80
2022-10-12T15:33:57.592Z,111.00
2022-10-12T15:36:29.728Z,112.00
2022-10-12T15:39:01.847Z,124.30
2022-10-12T15:41:34.328Z,98.80
2022-10-12T15:44:07.320Z,53.70
2022-10-12T15:46:39.489Z,51.40
2022-10-12T15:49:15.121Z,74.40
2022-10-12T15:51:51.746Z,89.40
2022-10-12T15:54:23.931Z,99.30
2022-10-12T15:56:56.087Z,125.40
2022-10-12T15:59:28.437Z,182.90
2022-10-12T16:02:00.931Z,170.60
2022-10-12T16:04:33.092Z,205.30
2022-10-12T16:07:05.219Z,302.90
2022-10-12T16:09:37.396Z,287.90
2022-10-12T16:12:09.778Z,242.60
2022-10-12T16:14:41.994Z,222.10
2022-10-12T16:17:14.538Z,198.50
2022-10-12T16:19:46.945Z,168.00
2022-10-12T16:22:19.181Z,184.00
2022-10-12T16:24:51.372Z,227.40
2022-10-12T16:27:23.468Z,197.00
2022-10-12T16:29:56.446Z,195.40
2022-10-12T16:32:28.685Z,233.30
2022-10-12T16:35:00.829Z,387.00
2022-10-12T16:37:33.155Z,391.10
2022-10-12T16:40:07.262Z,343.40
2022-10-12T16:42:39.387Z,307.30
2022-10-12T16:45:12.553Z,294.70
2022-10-12T16:47:44.695Z,321.60
2022-10-12T16:50:17.012Z,320.20
2022-10-12T16:52:49.403Z,175.80
2022-10-12T16:55:22.187Z,130.30
2022-10-12T16:57:54.340Z,103.10
2022-10-12T17:00:26.786Z,99.60
2022-10-12T17:02:58.906Z,160.60
2022-10-12T17:05:31.177Z,129.20
2022-10-12T17:08:03.429Z,115.10
2022-10-12T17:10:35.588Z,109.50
2022-10-12T17:13:07.989Z,104.70
2022-10-12T17:15:43.796Z,85.50
2022-10-12T17:18:16.214Z,77.40
2022-10-12T17:20:50.743Z,66.90
2022-10-12T17:23:25.110Z,66.20
2022-10-12T17:26:02.500Z,65.60
2022-10-12T17:28:37.581Z,81.30
2022-10-12T17:31:11.902Z,86.00
2022-10-12T17:33:44.285Z,90.10
2022-10-12T17:36:16.846Z,89.80
2022-10-12T17:38:53.319Z,72.90
2022-10-12T17:41:26.298Z,87.10
2022-10-12T17:43:59.003Z,82.40
2022-10-12T17:46:31.164Z,74.60
2022-10-12T17:49:03.875Z,86.50
2022-10-12T17:51:36.121Z,110.20
2022-10-12T17:54:08.435Z,247.50
2022-10-12T17:56:40.605Z,434.40
2022-10-12T17:59:14.941Z,472.30
2022-10-12T18:01:47.484Z,481.20
2022-10-12T18:04:20.139Z,440.50
2022-10-12T18:06:52.412Z,375.50
2022-10-12T18:09:24.797Z,313.90
2022-10-12T18:11:56.963Z,286.20
2022-10-12T18:14:29.239Z,214.10
2022-10-12T18:17:01.561Z,146.50
2022-10-12T18:19:33.807Z,107.60
2022-10-12T18:22:06.008Z,94.40
2022-10-12T18:24:38.239Z,95.50
2022-10-12T18:27:10.429Z,97.20
2022-10-12T18:29:42.719Z,118.90
2022-10-12T18:32:14.983Z,117.80
2022-10-12T18:34:47.545Z,103.60
2022-10-12T18:37:19.797Z,101.40
2022-10-12T18:39:52.286Z,122.60
2022-10-12T18:42:24.455Z,182.30
2022-10-12T18:44:56.937Z,242.80
2022-10-12T18:47:29.186Z,347.70
2022-10-12T18:50:01.548Z,192.30
2022-10-12T18:52:34.134Z,270.90
2022-10-12T18:55:07.184Z,265.40
2022-10-12T18:57:40.253Z,272.90
2022-10-12T19:00:15.398Z,264.00
2022-10-12T19:05:18.362Z,230.20
2022-10-12T19:07:50.637Z,205.00
2022-10-12T19:10:23.072Z,179.20
2022-10-12T19:12:55.248Z,174.20
2022-10-12T19:15:28.653Z,165.20
2022-10-12T19:18:00.840Z,167.50
2022-10-12T19:20:33.611Z,140.10
2022-10-12T19:23:05.860Z,102.20
2022-10-12T19:25:41.108Z,89.30
2022-10-12T19:28:13.343Z,80.00
2022-10-12T19:30:45.601Z,74.80
2022-10-12T19:33:17.755Z,68.60
2022-10-12T19:35:50.197Z,70.70
2022-10-12T19:38:22.842Z,74.70
2022-10-12T19:40:55.045Z,78.40
2022-10-12T19:43:27.860Z,82.90
2022-10-12T19:46:04.947Z,88.20
2022-10-12T19:48:37.348Z,92.00
2022-10-12T19:51:12.169Z,95.90
2022-10-12T19:53:44.607Z,85.60
2022-10-12T19:56:20.961Z,82.90
2022-10-12T19:58:55.451Z,85.00
2022-10-12T20:01:29.760Z,79.90
2022-10-12T20:04:02.694Z,76.10
2022-10-12T20:06:35.251Z,70.90
2022-10-12T20:09:09.061Z,72.30
2022-10-12T20:11:42.279Z,71.70
2022-10-12T20:14:14.548Z,63.70
2022-10-12T20:16:46.921Z,61.00
2022-10-12T20:19:19.309Z,64.00
2022-10-12T20:21:51.804Z,57.90
2022-10-12T20:26:57.646Z,66.20
2022-10-12T20:29:29.931Z,185.90
2022-10-12T20:32:02.340Z,190.10
2022-10-12T20:34:35.062Z,196.20
2022-10-12T20:37:07.368Z,191.90
2022-10-12T20:39:39.612Z,160.10
2022-10-12T20:42:12.081Z,146.60
2022-10-12T20:44:44.616Z,110.60
2022-10-12T20:47:17.766Z,87.90
2022-10-12T20:49:50.321Z,75.40
2022-10-12T20:52:22.646Z,68.80
2022-10-12T20:54:55.282Z,58.70
2022-10-12T20:57:27.561Z,52.30
2022-10-12T20:59:59.737Z,50.80
2022-10-12T21:02:33.519Z,49.10
2022-10-12T21:05:06.036Z,42.00
2022-10-12T21:07:38.521Z,47.10
2022-10-12T21:10:12.240Z,49.40
2022-10-12T21:12:44.363Z,72.30
2022-10-12T21:15:16.930Z,171.50
2022-10-12T21:17:49.228Z,139.80
2022-10-12T21:20:21.590Z,112.10
2022-10-12T21:22:53.870Z,117.10
2022-10-12T21:25:26.445Z,140.70
2022-10-12T21:27:58.724Z,163.00
2022-10-12T21:30:30.927Z,183.60
2022-10-12T21:33:02.984Z,202.70
2022-10-12T21:35:35.545Z,235.40
2022-10-12T21:38:08.145Z,217.50
2022-10-12T21:40:40.378Z,177.90
2022-10-12T21:43:12.698Z,198.20
2022-10-12T21:45:44.843Z,205.20
2022-10-12T21:48:16.983Z,223.70
2022-10-12T21:50:49.164Z,218.80
2022-10-12T21:53:21.373Z,269.30
2022-10-12T21:55:53.904Z,260.60
2022-10-12T21:58:26.078Z,209.70
2022-10-12T22:01:08.638Z,178.30
2022-10-12T22:03:40.979Z,131.10
2022-10-12T22:06:18.033Z,128.40
2022-10-12T22:08:55.120Z,141.50
2022-10-12T22:11:29.674Z,183.80
2022-10-12T22:14:03.988Z,198.80
2022-10-12T22:16:37.898Z,176.10
2022-10-12T22:19:14.451Z,114.30
2022-10-12T22:21:47.208Z,97.10
2022-10-12T22:24:19.513Z,101.20
2022-10-12T22:26:51.928Z,111.20
2022-10-12T22:29:24.111Z,94.30
2022-10-12T22:31:56.282Z,86.40
2022-10-12T22:34:28.681Z,82.60
2022-10-12T22:37:00.948Z,68.00
2022-10-12T22:39:33.191Z,57.10
2022-10-12T22:42:05.371Z,53.80
2022-10-12T22:44:37.482Z,45.10
2022-10-12T22:47:09.943Z,38.50
2022-10-12T22:49:42.148Z,32.00
2022-10-12T22:52:14.490Z,34.80
2022-10-12T22:54:50.039Z,34.10
2022-10-12T22:57:22.196Z,28.10
2022-10-12T22:59:54.457Z,28.90
2022-10-12T23:02:26.624Z,25.20
2022-10-12T23:04:58.761Z,26.80
2022-10-12T23:07:30.880Z,23.60
2022-10-12T23:10:03.092Z,23.80
2022-10-12T23:12:36.039Z,26.90
2022-10-12T23:15:09.893Z,29.70
2022-10-12T23:17:42.094Z,46.90
2022-10-12T23:20:14.745Z,47.70
2022-10-12T23:22:47.622Z,47.50
2022-10-12T23:25:19.977Z,49.90
2022-10-12T23:27:52.232Z,44.40
2022-10-12T23:30:24.529Z,39.60
2022-10-12T23:32:56.723Z,37.40
2022-10-12T23:35:31.380Z,36.30
2022-10-12T23:38:03.739Z,33.40
2022-10-12T23:40:37.833Z,44.00
2022-10-12T23:43:11.808Z,48.00
2022-10-12T23:45:45.715Z,52.10
2022-10-12T23:48:17.968Z,64.10
2022-10-12T23:50:52.076Z,69.30
2022-10-12T23:53:25.955Z,58.50
2022-10-12T23:55:58.136Z,49.80
2022-10-12T23:58:30.370Z,49.80
